Record high temperature 100.8°F Record low temperature -75.5°F Record high gust 121.0 mph Record high average 61.8 mph Record daily rain 2.61 in. Record low windchill -106.6°F Record high barometer 31.889 in. Record low barometer 23.642 in.
Daily high pressure 30.165 in. Daily low pressure 30.115 in. Daily low windchill 51.3°F Daily high heat index 68.4°F Daily high gust speed 19.9 mph ENE Daily high average speed 12.7 mph ENE
Weather Data
LAST READING AT TIME: 7:10 AM DATE: July 17 2014, time of next update: 07:20 am
Current WeatherDry Current Temperature 52.0°F (11.1°C), Apparent temp 52.7°F
Maximum Temperature (since midnight)68.4°F at: 12:00 AM Minimum Temperature (since midnight)51.3°F at: 6:13 AM
Average windspeed (ten minute)0.0 mph Wind Direction (ten minute)NNW (337°)
Windchill Temperature 52.0°F Maximum Gust (last hour)0.0 mph at: 7:00 AM
Maximum Gust (since midnight)19.9 mph at: 1:43 AM Maximum 1 minute average (since midnight)12.7 mph at: 2:15 AM
Rainfall (last hour)0.00 in. (0.0 mm) Rainfall (since midnight)0.95 in. (24.1 mm) ---
Rainfall This month 2.41 in. (61.2 mm) Rainfall To date this year 6.11 in. (155.3 mm)
Maximum rain per minute (last hour)0.00 in/min Maximum rain per hour (last 6 hours)0.43 in/hour
Yesterdays rainfall 0.01 in DewPoint 52.0°F (Wet Bulb :52.0°F )
Humidity 100 %, Humidex 55.3°F Barometer corrected to msl30.162 in. (1021.4 hPa)
Pressure change 0.00 in. (last hour) Trend (last hour)STEADY
Pressure change (last 12 hours)+0.04 in Pressure change (last 6 hours)+0.05 in


Click here for the last 24 hour graph
Click here for the last 48 hour graph
Click here for the last 72 hour graph
Click here for the month to date graph


Weather report/warning/Metars

COLORADO SPRINGS MUNI, CO, United States (KCOS) 38-49N 104-43W 1856M
Jul 17, 2014 - 08:54 AM EDT / 2014.07.17 1254 UTC
Wind: from the N (350 degrees) at 12 MPH (10 KT):0
Visibility: 10 mile(s):0
Sky conditions: mostly cloudy
Temperature: 55.0 F (12.8 C)
Dew Point: 50.0 F (10.0 C)
Relative Humidity: 83%
Pressure (altimeter): 30.17 in. Hg (1021 hPa)
ob: KCOS 171254Z 35010KT 10SM FEW034 SCT047 SCT080 BKN220 13/10 A3017 RMK AO2 SLP161 ACC S T01280100
cycle: 13
Air Force Academy, CO, United States (KAFF) 38-58N 104-49W 1999M
Jul 17, 2014 - 08:48 AM EDT / 2014.07.17 1248 UTC
Wind: from the N (360 degrees) at 7 MPH (6 KT):0
Visibility: 10 mile(s):0
Sky conditions: partly cloudy
Temperature: 53 F (12 C)
Dew Point: 53 F (12 C)
Relative Humidity: 100%
Pressure (altimeter): 30.19 in. Hg (1022 hPa)
ob: KAFF 171248Z AUTO 36006KT 10SM SCT010 12/12 A3019 RMK AO2
cycle: 13
Fort Carson, CO, United States (KFCS) 38-42N 104-46W 1789M
Jul 17, 2014 - 07:58 AM EDT / 2014.07.17 1158 UTC
Wind: from the NNW (340 degrees) at 12 MPH (10 KT):0
Visibility: 10 mile(s):0
Sky conditions: clear
Precipitation last hour: 0.02 inches
Temperature: 52.9 F (11.6 C)
Dew Point: 52.7 F (11.5 C)
Relative Humidity: 99%
Pressure (altimeter): 30.14 in. Hg (1020 hPa)
Pressure tendency: 0.01 inches (0.3 hPa) higher than three hours ago
ob: KFCS 171158Z AUTO 34010KT 10SM CLR 12/12 A3014 RMK AO2 SLP171 P0002 60014 70060 T01160115 10138 20112 53003
cycle: 12



The data is logged at two minute intervals, but there is data recorded every minute. Best viewed in 800 x 600 and True colour.

Use the RELOAD facility on your browser to retrieve the latest data.

Click here for a daily update of the averages/extremes to date for the month
Created by "Weather Display" software version 10.37R Build 78 at this start time/date 06:57 am 7/17/2014